createdAt,value
2017-08-30T00:02:25.357Z,8.70
2017-08-30T00:04:51.680Z,9.00
2017-08-30T00:07:18.417Z,9.20
2017-08-30T00:09:44.735Z,8.73
2017-08-30T00:12:11.045Z,9.60
2017-08-30T00:14:37.345Z,9.30
2017-08-30T00:17:03.924Z,9.23
2017-08-30T00:19:30.524Z,9.20
2017-08-30T00:21:57.427Z,9.20
2017-08-30T00:24:36.576Z,9.50
2017-08-30T00:27:03.162Z,9.10
2017-08-30T00:29:29.817Z,9.53
2017-08-30T00:31:56.365Z,9.70
2017-08-30T00:34:23.060Z,9.93
2017-08-30T00:36:49.681Z,9.20
2017-08-30T00:39:17.045Z,9.73
2017-08-30T00:41:43.656Z,9.30
2017-08-30T00:44:10.170Z,8.30
2017-08-30T00:46:36.729Z,9.57
2017-08-30T00:49:03.305Z,9.40
2017-08-30T00:51:29.780Z,9.57
2017-08-30T00:53:56.141Z,9.90
2017-08-30T00:56:22.618Z,9.33
2017-08-30T00:58:48.988Z,9.57
2017-08-30T01:01:15.422Z,9.10
2017-08-30T01:03:41.761Z,10.30
2017-08-30T01:06:08.151Z,8.83
2017-08-30T01:08:35.017Z,8.87
2017-08-30T01:11:01.552Z,9.80
2017-08-30T01:13:28.132Z,9.57
2017-08-30T01:15:54.737Z,9.83
2017-08-30T01:18:21.312Z,9.90
2017-08-30T01:20:47.965Z,9.13
2017-08-30T01:23:14.550Z,9.47
2017-08-30T01:25:41.111Z,8.50
2017-08-30T01:28:07.643Z,9.97
2017-08-30T01:30:34.204Z,9.60
2017-08-30T01:33:00.755Z,9.63
2017-08-30T01:35:27.334Z,9.80
2017-08-30T01:37:53.971Z,9.33
2017-08-30T01:40:20.511Z,9.73
2017-08-30T01:42:47.029Z,10.30
2017-08-30T01:45:13.593Z,9.70
2017-08-30T01:47:42.485Z,10.10
2017-08-30T01:50:09.025Z,10.17
2017-08-30T01:52:35.568Z,8.80
2017-08-30T01:55:02.137Z,9.27
2017-08-30T01:57:28.457Z,10.20
2017-08-30T01:59:54.845Z,10.33
2017-08-30T02:02:21.195Z,9.63
2017-08-30T02:04:47.553Z,9.87
2017-08-30T02:07:13.919Z,9.60
2017-08-30T02:09:40.265Z,9.80
2017-08-30T02:12:06.584Z,10.23
2017-08-30T02:14:32.924Z,10.67
2017-08-30T02:16:59.257Z,9.73
2017-08-30T02:19:25.593Z,9.57
2017-08-30T02:21:51.949Z,11.27
2017-08-30T02:24:18.273Z,9.40
2017-08-30T02:26:44.809Z,10.73
2017-08-30T02:29:11.380Z,10.53
2017-08-30T02:31:37.891Z,10.07
2017-08-30T02:34:04.569Z,10.60
2017-08-30T02:36:31.109Z,10.10
2017-08-30T02:38:57.666Z,10.37
2017-08-30T02:41:24.189Z,10.77
2017-08-30T02:43:50.711Z,10.23
2017-08-30T02:46:19.183Z,11.90
2017-08-30T02:48:45.735Z,11.50
2017-08-30T02:51:12.344Z,10.97
2017-08-30T02:53:38.857Z,12.33
2017-08-30T02:56:05.477Z,9.93
2017-08-30T02:58:32.012Z,11.13
2017-08-30T03:00:58.558Z,10.37
2017-08-30T03:03:25.103Z,10.90
2017-08-30T03:05:51.765Z,11.60
2017-08-30T03:08:18.311Z,11.70
2017-08-30T03:10:44.835Z,11.60
2017-08-30T03:13:11.413Z,11.27
2017-08-30T03:15:37.929Z,12.07
2017-08-30T03:18:04.455Z,11.30
2017-08-30T03:20:31.113Z,11.20
2017-08-30T03:22:57.440Z,11.67
2017-08-30T03:25:23.753Z,11.37
2017-08-30T03:27:50.047Z,11.53
2017-08-30T03:30:16.393Z,12.60
2017-08-30T03:32:42.690Z,11.53
2017-08-30T03:35:09.135Z,12.00
2017-08-30T03:37:35.456Z,12.77
2017-08-30T03:40:01.761Z,10.90
2017-08-30T03:42:28.315Z,12.53
2017-08-30T03:44:54.827Z,12.43
2017-08-30T03:47:21.313Z,12.70
2017-08-30T03:49:47.824Z,13.33
2017-08-30T03:52:14.424Z,12.97
2017-08-30T03:54:40.968Z,11.97
2017-08-30T03:57:10.586Z,12.70
2017-08-30T03:59:37.105Z,11.73
2017-08-30T04:02:03.735Z,13.10
2017-08-30T04:04:30.252Z,12.50
2017-08-30T04:06:56.792Z,12.47
2017-08-30T04:09:23.344Z,13.23
2017-08-30T04:11:49.896Z,12.60
2017-08-30T04:14:16.432Z,12.97
2017-08-30T04:16:42.960Z,13.80
2017-08-30T04:19:09.582Z,12.90
2017-08-30T04:21:36.126Z,13.50
2017-08-30T04:24:02.644Z,13.70
2017-08-30T04:26:28.952Z,14.20
2017-08-30T04:28:55.281Z,13.63
2017-08-30T04:31:21.625Z,14.03
2017-08-30T04:33:47.931Z,13.77
2017-08-30T04:36:14.328Z,14.13
2017-08-30T04:38:40.657Z,13.83
2017-08-30T04:41:06.955Z,14.20
2017-08-30T04:43:33.512Z,14.40
2017-08-30T04:46:00.032Z,15.30
2017-08-30T04:48:26.570Z,15.00
2017-08-30T04:50:56.076Z,14.77
2017-08-30T04:53:22.610Z,14.43
2017-08-30T04:55:49.172Z,14.03
2017-08-30T04:58:16.147Z,14.73
2017-08-30T05:00:42.720Z,14.40
2017-08-30T05:03:09.370Z,14.10
2017-08-30T05:05:36.468Z,14.07
2017-08-30T05:08:03.025Z,14.30
2017-08-30T05:10:29.685Z,14.50
2017-08-30T05:12:57.831Z,14.77
2017-08-30T05:15:24.398Z,14.60
2017-08-30T05:17:50.935Z,14.50
2017-08-30T05:20:17.506Z,14.17
2017-08-30T05:22:44.064Z,14.77
2017-08-30T05:25:10.652Z,13.57
2017-08-30T05:27:37.173Z,14.20
2017-08-30T05:30:03.738Z,14.10
2017-08-30T05:32:30.273Z,13.67
2017-08-30T05:34:56.815Z,12.67
2017-08-30T05:37:23.709Z,14.40
2017-08-30T05:39:50.135Z,13.23
2017-08-30T05:42:16.454Z,12.97
2017-08-30T05:44:42.764Z,12.93
2017-08-30T05:47:09.182Z,12.50
2017-08-30T05:49:35.529Z,13.10
2017-08-30T05:52:01.862Z,11.83
2017-08-30T05:54:28.412Z,10.90
2017-08-30T05:56:54.951Z,11.20
2017-08-30T05:59:21.512Z,10.83
2017-08-30T06:01:48.036Z,11.47
2017-08-30T06:04:14.631Z,10.87
2017-08-30T06:06:41.168Z,9.57
2017-08-30T06:09:07.693Z,9.93
2017-08-30T06:11:35.684Z,9.70
2017-08-30T06:14:04.288Z,9.53
2017-08-30T06:16:30.856Z,9.90
2017-08-30T06:18:57.405Z,8.90
2017-08-30T06:21:23.997Z,8.53
2017-08-30T06:23:50.512Z,9.50
2017-08-30T06:26:17.029Z,9.53
2017-08-30T06:28:43.577Z,9.17
2017-08-30T06:31:10.242Z,8.70
2017-08-30T06:33:36.761Z,8.57
2017-08-30T06:36:03.368Z,8.17
2017-08-30T06:38:29.888Z,9.33
2017-08-30T06:40:56.562Z,9.30
2017-08-30T06:43:23.131Z,7.97
2017-08-30T06:45:49.457Z,8.53
2017-08-30T06:48:15.751Z,8.30
2017-08-30T06:50:42.045Z,8.80
2017-08-30T06:53:08.357Z,8.90
2017-08-30T06:55:34.715Z,8.13
2017-08-30T06:58:01.043Z,8.03
2017-08-30T07:00:27.553Z,8.43
2017-08-30T07:02:54.137Z,8.20
2017-08-30T07:05:20.709Z,8.50
2017-08-30T07:07:47.244Z,8.60
2017-08-30T07:10:13.797Z,8.60
2017-08-30T07:12:40.438Z,8.40
2017-08-30T07:15:07.004Z,8.33
2017-08-30T07:17:33.585Z,8.47
2017-08-30T07:20:02.349Z,7.60
2017-08-30T07:22:28.861Z,8.30
2017-08-30T07:24:55.859Z,8.30
2017-08-30T07:27:22.678Z,7.23
2017-08-30T07:29:49.311Z,7.80
2017-08-30T07:32:16.063Z,7.70
2017-08-30T07:34:42.958Z,8.77
2017-08-30T07:37:09.700Z,9.10
2017-08-30T07:39:39.864Z,7.07
2017-08-30T07:42:06.417Z,8.90
2017-08-30T07:44:33.036Z,9.97
2017-08-30T07:46:59.727Z,9.70
2017-08-30T07:49:26.334Z,10.47
2017-08-30T07:51:57.997Z,9.00
2017-08-30T07:54:24.821Z,8.70
2017-08-30T07:56:51.138Z,8.50
2017-08-30T07:59:17.586Z,9.53
2017-08-30T08:01:44.031Z,9.20
2017-08-30T08:04:10.436Z,8.53
2017-08-30T08:06:36.747Z,8.30
2017-08-30T08:09:03.208Z,8.90
2017-08-30T08:11:29.557Z,8.13
2017-08-30T08:13:55.977Z,8.13
2017-08-30T08:16:22.349Z,9.20
2017-08-30T08:18:48.657Z,9.90
2017-08-30T08:21:14.961Z,10.17
2017-08-30T08:23:41.301Z,9.40
2017-08-30T08:26:07.611Z,9.73
2017-08-30T08:28:35.626Z,9.53
2017-08-30T08:31:02.177Z,10.30
2017-08-30T08:33:28.725Z,10.33
2017-08-30T08:35:55.263Z,9.37
2017-08-30T08:38:21.819Z,10.40
2017-08-30T08:40:48.340Z,10.40
2017-08-30T08:43:14.936Z,11.10
2017-08-30T08:45:42.539Z,10.57
2017-08-30T08:48:09.108Z,10.23
2017-08-30T08:50:35.624Z,11.53
2017-08-30T08:53:02.124Z,11.03
2017-08-30T08:55:28.654Z,12.13
2017-08-30T08:57:55.161Z,12.40
2017-08-30T09:00:21.689Z,12.07
2017-08-30T09:02:48.213Z,12.53
2017-08-30T09:05:14.741Z,13.10
2017-08-30T09:07:41.321Z,12.30
2017-08-30T09:10:07.859Z,12.60
2017-08-30T09:12:34.458Z,13.03
2017-08-30T09:15:01.013Z,12.63
2017-08-30T09:17:27.360Z,13.63
2017-08-30T09:19:53.675Z,14.63
2017-08-30T09:22:23.700Z,14.20
2017-08-30T09:24:50.025Z,14.37
2017-08-30T09:27:16.340Z,14.60
2017-08-30T09:29:42.680Z,15.07
2017-08-30T09:32:09.211Z,14.83
2017-08-30T09:34:35.757Z,14.10
2017-08-30T09:37:02.252Z,14.67
2017-08-30T09:39:28.765Z,15.17
2017-08-30T09:41:56.925Z,14.73
2017-08-30T09:44:23.608Z,13.50
2017-08-30T09:46:50.125Z,14.43
2017-08-30T09:49:16.551Z,15.40
2017-08-30T09:51:43.065Z,15.90
2017-08-30T09:54:09.621Z,17.23
2017-08-30T09:56:36.228Z,17.33
2017-08-30T09:59:02.689Z,17.33
2017-08-30T10:01:30.380Z,17.73
2017-08-30T10:03:58.419Z,18.37
2017-08-30T10:06:24.941Z,18.93
2017-08-30T10:08:51.473Z,19.03
2017-08-30T10:11:18.029Z,19.37
2017-08-30T10:13:44.597Z,18.60
2017-08-30T10:16:11.102Z,20.30
2017-08-30T10:18:37.608Z,19.63
2017-08-30T10:21:03.904Z,19.97
2017-08-30T10:23:33.536Z,20.50
2017-08-30T10:25:59.902Z,20.63
2017-08-30T10:28:26.284Z,18.57
2017-08-30T10:30:52.602Z,17.33
2017-08-30T10:33:18.937Z,16.13
2017-08-30T10:35:45.248Z,15.70
2017-08-30T10:38:11.662Z,16.40
2017-08-30T10:40:44.584Z,17.30
2017-08-30T10:43:10.904Z,16.73
2017-08-30T10:45:37.229Z,16.63
2017-08-30T10:48:03.709Z,16.70
2017-08-30T10:50:30.008Z,18.17
2017-08-30T10:52:56.355Z,16.87
2017-08-30T10:55:22.673Z,17.70
2017-08-30T10:57:49.002Z,16.73
2017-08-30T11:00:17.005Z,16.97
2017-08-30T11:02:43.314Z,17.90
2017-08-30T11:05:09.632Z,16.50
2017-08-30T11:07:35.921Z,17.47
2017-08-30T11:10:02.541Z,15.77
2017-08-30T11:12:29.081Z,16.43
2017-08-30T11:14:55.621Z,16.40
2017-08-30T11:17:23.364Z,17.03
2017-08-30T11:19:49.859Z,17.17
2017-08-30T11:22:16.352Z,16.20
2017-08-30T11:24:42.869Z,15.63
2017-08-30T11:27:09.406Z,15.70
2017-08-30T11:29:35.937Z,14.87
2017-08-30T11:32:08.172Z,14.53
2017-08-30T11:34:34.729Z,14.23
2017-08-30T11:37:01.257Z,14.37
2017-08-30T11:39:27.876Z,13.57
2017-08-30T11:41:54.451Z,14.53
2017-08-30T11:44:21.052Z,13.33
2017-08-30T11:46:47.609Z,13.90
2017-08-30T11:49:19.608Z,14.13
2017-08-30T11:51:46.181Z,13.53
2017-08-30T11:54:12.761Z,14.10
2017-08-30T11:56:39.296Z,13.63
2017-08-30T11:59:05.821Z,13.30
2017-08-30T12:01:32.367Z,14.27
2017-08-30T12:03:58.921Z,17.23
2017-08-30T12:06:25.464Z,18.70
2017-08-30T12:08:54.916Z,17.57
2017-08-30T12:11:21.473Z,16.33
2017-08-30T12:13:48.035Z,16.77
2017-08-30T12:16:14.353Z,16.40
2017-08-30T12:18:40.664Z,16.00
2017-08-30T12:21:06.968Z,16.50
2017-08-30T12:23:33.281Z,15.30
2017-08-30T12:25:59.608Z,15.43
2017-08-30T12:28:25.928Z,16.83
2017-08-30T12:30:52.268Z,14.83
2017-08-30T12:33:18.600Z,15.30
2017-08-30T12:35:44.909Z,16.97
2017-08-30T12:38:17.298Z,16.40
2017-08-30T12:40:43.611Z,16.37
2017-08-30T12:43:09.926Z,15.10
2017-08-30T12:45:36.245Z,14.17
2017-08-30T12:48:02.592Z,14.57
2017-08-30T12:50:29.157Z,16.27
2017-08-30T12:52:55.633Z,14.67
2017-08-30T12:55:22.183Z,18.93
2017-08-30T12:57:48.705Z,18.07
2017-08-30T13:00:15.269Z,16.60
2017-08-30T13:02:41.796Z,16.60
2017-08-30T13:05:14.808Z,15.37
2017-08-30T13:07:41.346Z,14.70
2017-08-30T13:10:07.893Z,16.80
2017-08-30T13:12:34.433Z,15.53
2017-08-30T13:15:00.998Z,15.77
2017-08-30T13:17:27.556Z,16.33
2017-08-30T13:19:54.117Z,16.87
2017-08-30T13:22:24.065Z,16.00
2017-08-30T13:24:50.611Z,17.40
2017-08-30T13:27:17.142Z,14.43
2017-08-30T13:29:43.662Z,14.60
2017-08-30T13:32:10.237Z,14.70
2017-08-30T13:34:36.761Z,15.60
2017-08-30T13:37:03.295Z,14.43
2017-08-30T13:39:29.831Z,14.23
2017-08-30T13:41:56.356Z,16.07
2017-08-30T13:44:22.868Z,15.90
2017-08-30T13:46:49.409Z,14.70
2017-08-30T13:49:16.065Z,15.13
2017-08-30T13:51:42.562Z,14.23
2017-08-30T13:54:09.116Z,14.77
2017-08-30T13:56:35.641Z,14.47
2017-08-30T13:59:02.206Z,14.97
2017-08-30T14:01:28.738Z,14.37
2017-08-30T14:03:55.080Z,13.30
2017-08-30T14:06:21.380Z,13.10
2017-08-30T14:08:47.698Z,12.50
2017-08-30T14:11:14.056Z,13.40
2017-08-30T14:13:40.441Z,13.60
2017-08-30T14:16:06.793Z,14.90
2017-08-30T14:18:36.452Z,14.37
2017-08-30T14:21:02.768Z,13.30
2017-08-30T14:23:29.075Z,14.17
2017-08-30T14:25:55.408Z,12.87
2017-08-30T14:28:21.720Z,13.67
2017-08-30T14:30:48.059Z,12.90
2017-08-30T14:33:14.400Z,14.00
2017-08-30T14:35:40.729Z,12.60
2017-08-30T14:38:07.877Z,13.20
2017-08-30T14:40:34.190Z,13.43
2017-08-30T14:43:00.518Z,13.90
2017-08-30T14:45:27.064Z,13.83
2017-08-30T14:47:53.606Z,13.50
2017-08-30T14:50:20.136Z,13.37
2017-08-30T14:52:46.791Z,14.57
2017-08-30T14:55:13.405Z,13.60
2017-08-30T14:57:41.420Z,13.50
2017-08-30T15:00:07.928Z,14.33
2017-08-30T15:02:34.462Z,13.57
2017-08-30T15:05:01.124Z,14.30
2017-08-30T15:07:27.708Z,14.47
2017-08-30T15:09:54.045Z,13.67
2017-08-30T15:12:20.568Z,14.20
2017-08-30T15:14:50.737Z,14.83
2017-08-30T15:17:17.304Z,13.77
2017-08-30T15:19:43.893Z,14.90
2017-08-30T15:22:10.452Z,14.90
2017-08-30T15:24:37.000Z,15.10
2017-08-30T15:27:03.532Z,15.00
2017-08-30T15:29:30.104Z,14.47
2017-08-30T15:31:56.648Z,15.27
2017-08-30T15:34:23.224Z,15.37
2017-08-30T15:36:49.768Z,15.20
2017-08-30T15:39:16.172Z,16.07
2017-08-30T15:41:42.489Z,15.23
2017-08-30T15:44:08.795Z,14.83
2017-08-30T15:46:35.101Z,15.00
2017-08-30T15:49:01.416Z,16.17
2017-08-30T15:51:27.851Z,15.30
2017-08-30T15:53:54.147Z,17.07
2017-08-30T15:56:20.942Z,17.40
2017-08-30T15:58:47.349Z,18.60
2017-08-30T16:01:13.837Z,17.67
2017-08-30T16:03:40.258Z,18.50
2017-08-30T16:06:06.700Z,19.27
2017-08-30T16:08:33.038Z,18.07
2017-08-30T16:10:59.424Z,16.60
2017-08-30T16:13:26.212Z,18.63
2017-08-30T16:15:52.781Z,18.13
2017-08-30T16:18:19.308Z,18.33
2017-08-30T16:20:45.925Z,19.67
2017-08-30T16:23:12.526Z,19.23
2017-08-30T16:25:39.164Z,19.70
2017-08-30T16:28:05.731Z,20.97
2017-08-30T16:30:32.298Z,20.10
2017-08-30T16:32:58.921Z,19.80
2017-08-30T16:35:25.460Z,21.10
2017-08-30T16:37:51.998Z,20.30
2017-08-30T16:40:18.506Z,19.03
2017-08-30T16:42:45.097Z,21.43
2017-08-30T16:45:11.604Z,20.50
2017-08-30T16:47:38.189Z,20.37
2017-08-30T16:50:05.984Z,23.03
2017-08-30T16:52:32.517Z,21.30
2017-08-30T16:54:59.092Z,21.50
2017-08-30T16:57:26.027Z,21.33
2017-08-30T16:59:52.620Z,20.37
2017-08-30T17:02:19.155Z,20.20
2017-08-30T17:04:45.741Z,21.63
2017-08-30T17:07:13.076Z,20.40
2017-08-30T17:09:39.795Z,21.23
2017-08-30T17:12:06.356Z,20.43
2017-08-30T17:14:32.946Z,20.30
2017-08-30T17:16:59.365Z,19.97
2017-08-30T17:19:25.735Z,19.40
2017-08-30T17:21:52.165Z,19.33
2017-08-30T17:24:18.489Z,20.00
2017-08-30T17:26:44.926Z,20.00
2017-08-30T17:29:11.284Z,19.73
2017-08-30T17:31:37.627Z,20.90
2017-08-30T17:34:03.987Z,20.30
2017-08-30T17:36:30.305Z,20.53
2017-08-30T17:38:56.609Z,19.93
2017-08-30T17:41:23.052Z,20.53
2017-08-30T17:43:49.476Z,20.83
2017-08-30T17:46:16.009Z,19.73
2017-08-30T17:48:42.764Z,18.80
2017-08-30T17:51:09.482Z,20.17
2017-08-30T17:53:36.020Z,20.10
2017-08-30T17:56:04.708Z,20.70
2017-08-30T17:58:31.261Z,21.07
2017-08-30T18:00:57.805Z,21.50
2017-08-30T18:03:24.313Z,20.40
2017-08-30T18:05:50.871Z,20.17
2017-08-30T18:08:18.580Z,21.27
2017-08-30T18:10:45.172Z,20.13
2017-08-30T18:13:11.704Z,20.10
2017-08-30T18:15:38.200Z,21.07
2017-08-30T18:18:04.748Z,21.63
2017-08-30T18:20:31.253Z,22.70
2017-08-30T18:22:57.793Z,20.43
2017-08-30T18:25:24.349Z,22.10
2017-08-30T18:27:50.921Z,21.53
2017-08-30T18:30:17.474Z,22.37
2017-08-30T18:32:44.028Z,23.97
2017-08-30T18:35:10.612Z,21.80
2017-08-30T18:37:37.274Z,23.23
2017-08-30T18:40:03.788Z,21.87
2017-08-30T18:42:30.344Z,21.67
2017-08-30T18:44:56.668Z,24.27
2017-08-30T18:47:22.976Z,21.37
2017-08-30T18:49:49.337Z,21.37
2017-08-30T18:52:15.662Z,23.33
2017-08-30T18:54:41.981Z,22.10
2017-08-30T18:57:08.325Z,25.10
2017-08-30T18:59:34.620Z,27.90
2017-08-30T19:02:02.972Z,28.40
2017-08-30T19:04:29.414Z,32.90
2017-08-30T19:06:55.767Z,34.40
2017-08-30T19:09:22.455Z,34.37
2017-08-30T19:11:48.786Z,35.00
2017-08-30T19:14:15.131Z,30.57
2017-08-30T19:16:41.452Z,31.30
2017-08-30T19:19:07.903Z,29.00
2017-08-30T19:21:34.284Z,29.00
2017-08-30T19:24:00.719Z,30.00
2017-08-30T19:26:27.445Z,28.60
2017-08-30T19:28:54.086Z,28.00
2017-08-30T19:31:20.646Z,29.43
2017-08-30T19:33:47.180Z,27.47
2017-08-30T19:36:13.888Z,30.17
2017-08-30T19:38:40.612Z,29.50
2017-08-30T19:41:07.319Z,16.07
2017-08-30T19:43:34.200Z,10.67
2017-08-30T19:46:01.050Z,10.70
2017-08-30T19:48:27.617Z,9.97
2017-08-30T19:50:54.203Z,8.03
2017-08-30T19:53:20.780Z,5.10
2017-08-30T19:55:47.367Z,3.93
2017-08-30T19:58:14.184Z,4.17
2017-08-30T20:00:40.721Z,3.97
2017-08-30T20:03:07.284Z,3.90
2017-08-30T20:05:33.824Z,3.80
2017-08-30T20:08:01.118Z,3.70
2017-08-30T20:10:27.756Z,3.53
2017-08-30T20:12:54.325Z,3.77
2017-08-30T20:15:20.672Z,3.50
2017-08-30T20:17:47.044Z,3.43
2017-08-30T20:20:13.549Z,3.70
2017-08-30T20:22:39.890Z,3.70
2017-08-30T20:25:06.317Z,3.90
2017-08-30T20:27:32.655Z,4.00
2017-08-30T20:29:59.059Z,4.30
2017-08-30T20:32:25.461Z,3.67
2017-08-30T20:34:51.867Z,3.90
2017-08-30T20:37:18.211Z,4.27
2017-08-30T20:39:44.553Z,4.33
2017-08-30T20:42:11.982Z,4.50
2017-08-30T20:44:38.297Z,5.80
2017-08-30T20:47:04.652Z,4.63
2017-08-30T20:49:31.252Z,4.80
2017-08-30T20:51:57.765Z,4.70
2017-08-30T20:54:24.359Z,4.60
2017-08-30T20:56:50.979Z,5.00
2017-08-30T20:59:17.527Z,4.50
2017-08-30T21:01:44.079Z,4.30
2017-08-30T21:04:10.581Z,4.00
2017-08-30T21:06:37.116Z,5.80
2017-08-30T21:09:03.706Z,6.23
2017-08-30T21:11:30.356Z,6.63
2017-08-30T21:13:56.892Z,7.33
2017-08-30T21:16:23.433Z,7.50
2017-08-30T21:18:49.980Z,7.00
2017-08-30T21:21:16.543Z,7.73
2017-08-30T21:23:43.065Z,8.80
2017-08-30T21:26:09.604Z,8.00
2017-08-30T21:28:36.264Z,8.90
2017-08-30T21:31:02.803Z,10.33
2017-08-30T21:33:29.344Z,10.60
2017-08-30T21:35:55.872Z,10.30
2017-08-30T21:38:22.414Z,11.17
2017-08-30T21:40:49.041Z,10.53
2017-08-30T21:43:15.584Z,11.33
2017-08-30T21:45:42.120Z,11.17
2017-08-30T21:48:08.693Z,11.10
2017-08-30T21:50:35.257Z,12.57
2017-08-30T21:53:02.054Z,11.87
2017-08-30T21:55:28.361Z,11.43
2017-08-30T21:57:54.677Z,12.87
2017-08-30T22:00:21.085Z,10.70
2017-08-30T22:02:47.392Z,11.23
2017-08-30T22:05:13.724Z,11.00
2017-08-30T22:07:40.012Z,10.37
2017-08-30T22:10:06.323Z,10.03
2017-08-30T22:12:32.708Z,10.70
2017-08-30T22:14:59.023Z,10.83
2017-08-30T22:17:25.411Z,9.00
2017-08-30T22:19:51.753Z,10.37
2017-08-30T22:22:18.157Z,9.90
2017-08-30T22:24:44.538Z,9.97
2017-08-30T22:27:10.864Z,9.97
2017-08-30T22:29:37.182Z,10.97
2017-08-30T22:32:03.498Z,10.33
2017-08-30T22:34:30.043Z,11.30
2017-08-30T22:36:56.585Z,11.40
2017-08-30T22:39:23.129Z,13.00
2017-08-30T22:41:49.808Z,11.43
2017-08-30T22:44:19.105Z,12.30
2017-08-30T22:46:45.624Z,10.67
2017-08-30T22:49:12.276Z,11.77
2017-08-30T22:51:38.945Z,10.33
2017-08-30T22:54:05.472Z,10.80
2017-08-30T22:56:32.024Z,11.63
2017-08-30T22:58:58.541Z,10.60
2017-08-30T23:01:25.102Z,11.90
2017-08-30T23:03:51.660Z,11.53
2017-08-30T23:06:18.200Z,11.17
2017-08-30T23:08:44.785Z,11.70
2017-08-30T23:11:11.313Z,13.50
2017-08-30T23:13:37.929Z,13.50
2017-08-30T23:16:05.737Z,14.70
2017-08-30T23:18:32.069Z,15.53
2017-08-30T23:20:58.417Z,16.40
2017-08-30T23:23:24.797Z,14.10
2017-08-30T23:25:51.328Z,16.70
2017-08-30T23:28:17.954Z,19.57
2017-08-30T23:30:44.508Z,18.97
2017-08-30T23:33:11.044Z,21.37
2017-08-30T23:35:40.689Z,22.57
2017-08-30T23:38:07.253Z,23.83
2017-08-30T23:40:33.778Z,23.93
2017-08-30T23:43:01.059Z,22.57
2017-08-30T23:45:27.612Z,22.70
2017-08-30T23:47:54.134Z,21.47
2017-08-30T23:50:20.692Z,23.33
2017-08-30T23:52:47.236Z,21.93
2017-08-30T23:55:13.864Z,22.37
2017-08-30T23:57:40.690Z,26.03
